Main page
METAR-TAF:

METAR-TAF

Airports :

Hohenfels, Germany

latitude: 49-13N, longitude: 011-50E, elevation: 442 m

Current weather observation

The report was made 55 minutes ago, at 01:58 UTC
Calm wind
Temperature 10°C
Humidity 93%
Pressure 1022 hPa
Visibility 10 km or more
Clear sky

METAR: ETIH 280158Z AUTO 00000KT 9999 CLR 10/09 A3018 RMK AO2 SLP211

Time: 04:53 (02:53 UTC)

Forecast

The report was made 5 hours and 43 minutes ago, at 21:10 UTC
Forecast valid from 27 at 21 UTC to 29 at 03 UTC
Wind 6 kt from variable directions
Visibility 10 km or more
Clear sky
Becoming
from 27 at 23 UTC to 28 at 00 UTC
Wind 6 kt from variable directions
Visibility: 6000 m
Few clouds at a height of 5000 ft
mist
Becoming
from 28 at 05 UTC to 28 at 06 UTC
Wind 6 kt from variable directions
Visibility 10 km or more
Few clouds at a height of 5000 ft

TAF: ETIH 272110Z 2721/2903 VRB06KT 9999 SKC QNH3016INS BECMG 2723/2800 VRB06KT 6000 BR FEW050 QNH3015INS BECMG 2805/2806 VRB06KT 9999 NSW FEW050 QNH3013INS TX26/2812Z TN08/2803Z

Weather observations and forecasts of more than 4000 airports (METAR and TAF reports).

The available stations are represented by yellow and red dots on the map.

Hover mouse over dot to see the name of the station.

Then click to see weather observations and forecasts.

To change the map : click on the green buttons with a black cross to zoom in, on the green button with a dash to zoom out, or on the green arrows for adjacent maps.


METAR-TAF: